createdAt,value
2019-02-15T00:00:09.059Z,69.66
2019-02-15T00:02:42.536Z,69.70
2019-02-15T00:05:14.603Z,69.78
2019-02-15T00:07:47.829Z,69.63
2019-02-15T00:10:21.039Z,69.79
2019-02-15T00:12:53.214Z,69.64
2019-02-15T00:15:25.598Z,69.76
2019-02-15T00:18:16.291Z,69.67
2019-02-15T00:20:52.296Z,69.71
2019-02-15T00:23:24.492Z,69.65
2019-02-15T00:25:56.851Z,69.61
2019-02-15T00:28:29.123Z,69.60
2019-02-15T00:31:01.431Z,69.70
2019-02-15T00:33:33.583Z,69.74
2019-02-15T00:36:06.007Z,69.69
2019-02-15T00:38:38.204Z,69.67
2019-02-15T00:41:10.504Z,69.70
2019-02-15T00:43:42.661Z,69.73
2019-02-15T00:46:36.797Z,69.59
2019-02-15T00:49:10.659Z,69.62
2019-02-15T00:51:52.425Z,69.70
2019-02-15T00:54:35.845Z,69.76
2019-02-15T00:57:38.663Z,69.72
2019-02-15T01:00:35.613Z,69.64
2019-02-15T01:03:29.280Z,69.68
2019-02-15T01:06:35.550Z,69.56
2019-02-15T01:09:28.397Z,69.73
2019-02-15T01:12:04.968Z,69.70
2019-02-15T01:14:37.063Z,69.04
2019-02-15T01:17:09.761Z,69.40
2019-02-15T01:19:41.877Z,69.37
2019-02-15T01:22:14.255Z,69.56
2019-02-15T01:24:46.537Z,69.57
2019-02-15T01:27:24.919Z,69.50
2019-02-15T01:30:10.298Z,69.62
2019-02-15T01:32:59.453Z,69.49
2019-02-15T01:35:41.879Z,69.33
2019-02-15T01:38:32.681Z,69.32
2019-02-15T01:41:18.690Z,69.34
2019-02-15T01:44:01.466Z,69.19
2019-02-15T01:46:52.235Z,69.54
2019-02-15T01:49:24.562Z,69.54
2019-02-15T01:51:56.624Z,69.61
2019-02-15T01:54:28.856Z,69.65
2019-02-15T01:57:01.033Z,69.43
2019-02-15T01:59:33.210Z,69.60
2019-02-15T02:02:05.371Z,69.63
2019-02-15T02:04:37.618Z,69.45
2019-02-15T02:07:09.841Z,69.64
2019-02-15T02:09:41.976Z,69.60
2019-02-15T02:12:14.552Z,69.62
2019-02-15T02:14:46.752Z,69.68
2019-02-15T02:17:18.894Z,69.73
2019-02-15T02:19:51.060Z,69.71
2019-02-15T02:22:23.225Z,69.34
2019-02-15T02:24:55.486Z,69.59
2019-02-15T02:27:27.623Z,69.56
2019-02-15T02:30:00.035Z,69.64
2019-02-15T02:32:32.342Z,69.66
2019-02-15T02:35:05.384Z,69.68
2019-02-15T02:37:38.574Z,69.62
2019-02-15T02:40:10.736Z,69.68
2019-02-15T02:42:42.903Z,69.69
2019-02-15T02:45:15.080Z,69.73
2019-02-15T02:47:47.262Z,69.75
2019-02-15T02:50:19.440Z,69.77
2019-02-15T02:52:51.501Z,69.70
2019-02-15T02:55:23.782Z,69.72
2019-02-15T02:57:56.150Z,69.69
2019-02-15T03:00:33.443Z,69.71
2019-02-15T03:03:02.284Z,69.69
2019-02-15T03:05:34.638Z,69.64
2019-02-15T03:08:06.811Z,69.62
2019-02-15T03:10:38.856Z,69.65
2019-02-15T03:13:11.016Z,69.66
2019-02-15T03:15:43.272Z,69.69
2019-02-15T03:18:15.606Z,69.67
2019-02-15T03:20:47.862Z,69.65
2019-02-15T03:23:19.992Z,69.71
2019-02-15T03:25:52.153Z,69.69
2019-02-15T03:28:24.437Z,69.53
2019-02-15T03:30:56.834Z,69.53
2019-02-15T03:33:29.533Z,69.58
2019-02-15T03:36:04.001Z,69.48
2019-02-15T03:38:47.023Z,69.34
2019-02-15T03:41:33.342Z,69.39
2019-02-15T03:44:05.593Z,69.53
2019-02-15T03:46:37.764Z,69.63
2019-02-15T03:49:10.021Z,69.61
2019-02-15T03:51:42.240Z,69.69
2019-02-15T03:54:14.663Z,69.71
2019-02-15T03:56:46.914Z,69.73
2019-02-15T03:59:19.407Z,69.72
2019-02-15T04:01:51.642Z,69.74
2019-02-15T04:04:24.825Z,69.77
2019-02-15T04:06:56.935Z,69.74
2019-02-15T04:09:29.234Z,69.72
2019-02-15T04:12:01.551Z,69.73
2019-02-15T04:14:34.244Z,69.71
2019-02-15T04:17:06.542Z,69.72
2019-02-15T04:19:38.916Z,69.77
2019-02-15T04:22:11.274Z,69.74
2019-02-15T04:24:43.639Z,69.72
2019-02-15T04:27:16.437Z,69.74
2019-02-15T04:29:48.795Z,69.73
2019-02-15T04:32:21.039Z,69.72
2019-02-15T04:34:53.214Z,69.74
2019-02-15T04:37:25.468Z,69.76
2019-02-15T04:39:57.708Z,69.76
2019-02-15T04:42:30.108Z,69.78
2019-02-15T04:45:02.317Z,69.77
2019-02-15T04:47:34.494Z,69.76
2019-02-15T04:50:06.658Z,69.65
2019-02-15T04:52:38.897Z,69.63
2019-02-15T04:55:11.110Z,69.67
2019-02-15T04:57:43.645Z,69.73
2019-02-15T05:00:16.140Z,69.75
2019-02-15T05:02:48.479Z,69.76
2019-02-15T05:05:20.789Z,69.74
2019-02-15T05:07:53.151Z,69.76
2019-02-15T05:10:25.552Z,69.74
2019-02-15T05:12:57.925Z,69.78
2019-02-15T05:15:30.266Z,69.76
2019-02-15T05:18:02.620Z,69.77
2019-02-15T05:20:35.057Z,69.79
2019-02-15T05:23:07.280Z,69.76
2019-02-15T05:25:39.599Z,69.78
2019-02-15T05:28:11.934Z,69.79
2019-02-15T05:30:44.337Z,69.78
2019-02-15T05:33:16.666Z,69.81
2019-02-15T05:35:49.005Z,69.80
2019-02-15T05:38:21.126Z,69.82
2019-02-15T05:40:53.505Z,69.82
2019-02-15T05:43:25.710Z,69.82
2019-02-15T05:45:59.163Z,69.82
2019-02-15T05:48:31.527Z,69.85
2019-02-15T05:51:03.973Z,69.84
2019-02-15T05:53:36.139Z,69.83
2019-02-15T05:56:08.422Z,69.87
2019-02-15T05:58:40.934Z,69.84
2019-02-15T06:01:13.608Z,69.86
2019-02-15T06:03:46.104Z,69.87
2019-02-15T06:06:19.235Z,69.89
2019-02-15T06:08:51.502Z,69.89
2019-02-15T06:11:23.872Z,69.90
2019-02-15T06:13:56.296Z,69.87
2019-02-15T06:16:28.667Z,69.91
2019-02-15T06:19:01.042Z,69.90
2019-02-15T06:21:33.403Z,69.90
2019-02-15T06:24:05.783Z,69.89
2019-02-15T06:26:38.119Z,69.91
2019-02-15T06:29:10.486Z,69.92
2019-02-15T06:31:43.028Z,69.92
2019-02-15T06:34:15.281Z,69.93
2019-02-15T06:36:47.587Z,69.92
2019-02-15T06:39:20.092Z,69.93
2019-02-15T06:41:52.224Z,69.95
2019-02-15T06:44:24.432Z,69.95
2019-02-15T06:46:56.672Z,69.96
2019-02-15T06:49:29.999Z,69.96
2019-02-15T06:52:02.171Z,69.99
2019-02-15T06:54:34.411Z,69.98
2019-02-15T06:57:06.785Z,69.99
2019-02-15T06:59:58.197Z,69.99
2019-02-15T07:03:04.669Z,70.03
2019-02-15T07:05:36.935Z,70.04
2019-02-15T07:08:09.351Z,70.04
2019-02-15T07:10:41.510Z,70.05
2019-02-15T07:13:13.795Z,70.06
2019-02-15T07:15:46.438Z,70.05
2019-02-15T07:18:18.674Z,70.07
2019-02-15T07:20:51.106Z,70.06
2019-02-15T07:23:23.214Z,70.07
2019-02-15T07:25:55.545Z,70.09
2019-02-15T07:28:27.794Z,70.10
2019-02-15T07:31:00.505Z,70.09
2019-02-15T07:33:32.708Z,70.12
2019-02-15T07:36:05.015Z,70.10
2019-02-15T07:38:37.390Z,70.12
2019-02-15T07:41:09.725Z,70.10
2019-02-15T07:43:42.021Z,70.12
2019-02-15T07:46:14.491Z,70.12
2019-02-15T07:48:47.751Z,70.14
2019-02-15T07:51:20.034Z,70.14
2019-02-15T07:53:52.412Z,70.17
2019-02-15T07:56:26.089Z,70.19
2019-02-15T07:58:58.517Z,70.19
2019-02-15T08:01:30.674Z,70.19
2019-02-15T08:04:03.113Z,70.22
2019-02-15T08:06:35.478Z,70.22
2019-02-15T08:09:08.082Z,70.24
2019-02-15T08:11:40.381Z,70.25
2019-02-15T08:14:14.875Z,70.24
2019-02-15T08:16:46.771Z,70.27
2019-02-15T08:19:21.074Z,70.28
2019-02-15T08:21:53.041Z,70.29
2019-02-15T08:24:25.539Z,70.28
2019-02-15T08:26:58.317Z,70.31
2019-02-15T08:29:30.727Z,70.32
2019-02-15T08:32:03.004Z,70.33
2019-02-15T08:34:35.166Z,70.35
2019-02-15T08:37:07.313Z,70.34
2019-02-15T08:39:39.624Z,70.36
2019-02-15T08:42:11.876Z,70.38
2019-02-15T08:44:44.040Z,70.37
2019-02-15T08:47:16.305Z,70.38
2019-02-15T08:49:48.662Z,70.40
2019-02-15T08:52:20.931Z,70.39
2019-02-15T08:54:53.346Z,70.42
2019-02-15T08:57:25.836Z,70.43
2019-02-15T08:59:58.054Z,70.41
2019-02-15T09:02:31.403Z,70.42
2019-02-15T09:05:03.599Z,70.44
2019-02-15T09:07:36.896Z,70.48
2019-02-15T09:10:09.712Z,70.43
2019-02-15T09:12:42.081Z,70.44
2019-02-15T09:15:15.637Z,70.49
2019-02-15T09:17:51.062Z,70.51
2019-02-15T09:20:23.492Z,70.54
2019-02-15T09:22:55.820Z,70.53
2019-02-15T09:25:28.162Z,70.52
2019-02-15T09:28:18.920Z,70.49
2019-02-15T09:30:54.269Z,70.52
2019-02-15T09:33:26.710Z,70.55
2019-02-15T09:35:59.270Z,70.54
2019-02-15T09:38:31.722Z,70.50
2019-02-15T09:41:03.984Z,70.55
2019-02-15T09:43:36.233Z,70.55
2019-02-15T09:46:08.533Z,70.58
2019-02-15T09:48:40.892Z,70.59
2019-02-15T09:51:13.176Z,70.62
2019-02-15T09:53:45.553Z,70.58
2019-02-15T09:56:18.199Z,70.62
2019-02-15T09:58:50.921Z,70.68
2019-02-15T10:01:24.247Z,70.67
2019-02-15T10:03:58.266Z,70.66
2019-02-15T10:06:33.755Z,70.76
2019-02-15T10:09:08.191Z,70.73
2019-02-15T10:11:42.671Z,70.73
2019-02-15T10:14:16.142Z,70.74
2019-02-15T10:16:50.355Z,70.76
2019-02-15T10:19:24.541Z,70.84
2019-02-15T10:21:58.448Z,70.81
2019-02-15T10:24:32.531Z,70.81
2019-02-15T10:27:07.069Z,70.84
2019-02-15T10:29:41.483Z,70.80
2019-02-15T10:32:18.102Z,70.86
2019-02-15T10:34:50.445Z,70.90
2019-02-15T10:37:22.997Z,70.87
2019-02-15T10:39:59.623Z,70.92
2019-02-15T10:42:32.143Z,70.93
2019-02-15T10:45:04.518Z,70.94
2019-02-15T10:47:37.176Z,70.94
2019-02-15T10:50:09.630Z,70.94
2019-02-15T10:52:41.922Z,70.95
2019-02-15T10:55:14.297Z,71.01
2019-02-15T10:57:46.511Z,71.03
2019-02-15T11:00:20.222Z,71.02
2019-02-15T11:02:52.435Z,70.99
2019-02-15T11:05:24.619Z,71.03
2019-02-15T11:07:56.933Z,71.01
2019-02-15T11:10:31.778Z,70.99
2019-02-15T11:13:04.531Z,71.05
2019-02-15T11:15:37.541Z,71.06
2019-02-15T11:18:10.494Z,71.07
2019-02-15T11:20:43.062Z,71.05
2019-02-15T11:23:15.428Z,71.08
2019-02-15T11:25:48.045Z,71.12
2019-02-15T11:28:20.786Z,71.12
2019-02-15T11:30:53.275Z,71.12
2019-02-15T11:33:25.734Z,71.14
2019-02-15T11:35:58.039Z,71.18
2019-02-15T11:38:30.365Z,71.21
2019-02-15T11:41:10.999Z,71.16
2019-02-15T11:43:37.041Z,71.20
2019-02-15T11:46:09.330Z,71.23
2019-02-15T11:48:41.559Z,71.19
2019-02-15T11:51:14.016Z,71.17
2019-02-15T11:53:46.222Z,71.24
2019-02-15T11:56:18.772Z,71.24
2019-02-15T11:58:51.257Z,71.25
2019-02-15T12:01:24.576Z,71.27
2019-02-15T12:03:56.933Z,71.28
2019-02-15T12:06:29.212Z,71.27
2019-02-15T12:09:02.605Z,71.27
2019-02-15T12:11:36.192Z,71.29
2019-02-15T12:14:08.464Z,71.35
2019-02-15T12:16:40.653Z,71.42
2019-02-15T12:19:12.994Z,71.34
2019-02-15T12:21:45.177Z,71.37
2019-02-15T12:24:17.659Z,71.36
2019-02-15T12:26:50.041Z,71.42
2019-02-15T12:29:22.411Z,71.44
2019-02-15T12:31:54.781Z,71.42
2019-02-15T12:34:26.935Z,71.43
2019-02-15T12:36:59.347Z,71.43
2019-02-15T12:39:31.536Z,71.47
2019-02-15T12:42:03.700Z,71.51
2019-02-15T12:44:35.992Z,71.51
2019-02-15T12:47:14.798Z,71.47
2019-02-15T12:49:42.760Z,71.55
2019-02-15T12:52:15.110Z,71.55
2019-02-15T12:54:47.605Z,71.55
2019-02-15T12:57:19.762Z,71.55
2019-02-15T12:59:52.216Z,71.57
2019-02-15T13:02:24.616Z,71.56
2019-02-15T13:04:57.041Z,71.59
2019-02-15T13:07:31.142Z,71.58
2019-02-15T13:10:03.636Z,71.59
2019-02-15T13:12:35.813Z,71.62
2019-02-15T13:15:07.965Z,71.61
2019-02-15T13:17:40.327Z,71.65
2019-02-15T13:20:12.658Z,71.68
2019-02-15T13:22:45.018Z,71.66
2019-02-15T13:25:17.256Z,71.68
2019-02-15T13:27:49.517Z,71.69
2019-02-15T13:30:21.743Z,71.68
2019-02-15T13:32:54.069Z,71.68
2019-02-15T13:35:26.462Z,71.70
2019-02-15T13:37:58.844Z,71.69
2019-02-15T13:40:31.028Z,71.74
2019-02-15T13:43:03.403Z,71.69
2019-02-15T13:45:35.792Z,71.73
2019-02-15T13:48:08.026Z,71.75
2019-02-15T13:50:40.487Z,71.75
2019-02-15T13:53:14.018Z,71.74
2019-02-15T13:55:46.367Z,71.74
2019-02-15T13:58:18.691Z,71.69
2019-02-15T14:00:50.834Z,71.69
2019-02-15T14:03:23.190Z,71.72
2019-02-15T14:05:55.366Z,71.69
2019-02-15T14:08:27.812Z,71.69
2019-02-15T14:11:00.308Z,71.65
2019-02-15T14:13:32.800Z,71.67
2019-02-15T14:16:05.105Z,71.65
2019-02-15T14:18:37.259Z,71.68
2019-02-15T14:21:09.543Z,71.72
2019-02-15T14:23:41.908Z,71.67
2019-02-15T14:26:19.217Z,71.66
2019-02-15T14:28:48.222Z,71.69
2019-02-15T14:31:21.692Z,71.67
2019-02-15T14:33:54.040Z,71.66
2019-02-15T14:36:26.413Z,71.66
2019-02-15T14:38:58.546Z,71.69
2019-02-15T14:41:31.138Z,71.66
2019-02-15T14:44:03.438Z,71.66
2019-02-15T14:46:35.604Z,71.65
2019-02-15T14:49:07.740Z,71.64
2019-02-15T14:51:40.043Z,71.66
2019-02-15T14:54:12.584Z,71.64
2019-02-15T14:56:44.669Z,71.65
2019-02-15T14:59:17.860Z,71.67
2019-02-15T15:01:50.085Z,71.65
2019-02-15T15:04:22.343Z,71.67
2019-02-15T15:06:54.766Z,71.63
2019-02-15T15:09:27.084Z,71.65
2019-02-15T15:11:59.284Z,71.65
2019-02-15T15:14:31.479Z,71.68
2019-02-15T15:17:03.780Z,71.72
2019-02-15T15:19:36.127Z,71.71
2019-02-15T15:22:08.453Z,71.70
2019-02-15T15:24:40.583Z,71.71
2019-02-15T15:27:12.683Z,71.71
2019-02-15T15:29:45.292Z,71.69
2019-02-15T15:32:17.547Z,71.73
2019-02-15T15:34:49.790Z,71.71
2019-02-15T15:37:22.120Z,71.72
2019-02-15T15:39:54.330Z,71.75
2019-02-15T15:42:26.659Z,71.72
2019-02-15T15:44:58.890Z,71.75
2019-02-15T15:47:33.189Z,71.81
2019-02-15T15:50:04.839Z,71.82
2019-02-15T15:52:37.178Z,71.81
2019-02-15T15:55:09.516Z,71.84
2019-02-15T15:57:41.585Z,71.83
2019-02-15T16:00:14.886Z,71.87
2019-02-15T16:02:47.218Z,71.83
2019-02-15T16:05:19.501Z,71.84
2019-02-15T16:07:51.710Z,71.79
2019-02-15T16:10:23.812Z,71.84
2019-02-15T16:12:56.372Z,71.81
2019-02-15T16:15:28.667Z,71.84
2019-02-15T16:18:01.039Z,71.83
2019-02-15T16:20:34.431Z,71.80
2019-02-15T16:23:06.779Z,71.81
2019-02-15T16:25:38.899Z,71.78
2019-02-15T16:28:11.266Z,71.79
2019-02-15T16:30:43.720Z,71.76
2019-02-15T16:33:16.051Z,71.78
2019-02-15T16:35:48.243Z,71.83
2019-02-15T16:38:20.417Z,71.76
2019-02-15T16:40:52.876Z,71.81
2019-02-15T16:43:25.295Z,71.72
2019-02-15T16:45:57.449Z,71.79
2019-02-15T16:48:29.787Z,71.75
2019-02-15T16:51:01.992Z,71.77
2019-02-15T16:53:34.440Z,71.78
2019-02-15T16:56:06.809Z,71.75
2019-02-15T16:58:39.193Z,71.74
2019-02-15T17:01:11.448Z,71.73
2019-02-15T17:03:44.037Z,71.68
2019-02-15T17:06:17.284Z,71.69
2019-02-15T17:08:49.632Z,71.70
2019-02-15T17:11:21.872Z,71.71
2019-02-15T17:13:54.149Z,71.71
2019-02-15T17:16:26.421Z,71.70
2019-02-15T17:18:59.807Z,71.70
2019-02-15T17:21:32.068Z,71.69
2019-02-15T17:24:04.617Z,71.68
2019-02-15T17:26:36.846Z,71.74
2019-02-15T17:29:09.104Z,71.71
2019-02-15T17:31:41.309Z,71.69
2019-02-15T17:34:13.766Z,71.67
2019-02-15T17:36:45.888Z,71.65
2019-02-15T17:39:18.176Z,71.67
2019-02-15T17:41:50.379Z,71.64
2019-02-15T17:44:22.938Z,71.70
2019-02-15T17:46:55.151Z,71.68
2019-02-15T17:49:27.620Z,71.66
2019-02-15T17:51:59.886Z,71.61
2019-02-15T17:54:32.280Z,71.62
2019-02-15T17:57:04.576Z,71.65
2019-02-15T17:59:36.883Z,71.62
2019-02-15T18:02:10.174Z,71.64
2019-02-15T18:04:42.584Z,71.57
2019-02-15T18:07:14.786Z,71.51
2019-02-15T18:09:47.103Z,71.57
2019-02-15T18:12:19.434Z,71.58
2019-02-15T18:14:52.442Z,71.61
2019-02-15T18:17:24.875Z,71.52
2019-02-15T18:19:56.999Z,71.54
2019-02-15T18:22:29.407Z,71.54
2019-02-15T18:25:01.798Z,71.56
2019-02-15T18:27:34.071Z,71.42
2019-02-15T18:30:06.371Z,71.44
2019-02-15T18:32:38.586Z,71.45
2019-02-15T18:35:11.042Z,71.47
2019-02-15T18:37:43.198Z,71.47
2019-02-15T18:40:15.560Z,71.45
2019-02-15T18:42:47.807Z,71.40
2019-02-15T18:45:20.134Z,71.39
2019-02-15T18:47:52.382Z,71.41
2019-02-15T18:50:24.538Z,71.36
2019-02-15T18:52:56.749Z,71.33
2019-02-15T18:55:29.165Z,71.32
2019-02-15T18:58:01.599Z,71.33
2019-02-15T19:00:33.700Z,71.27
2019-02-15T19:03:06.368Z,71.24
2019-02-15T19:05:38.540Z,71.32
2019-02-15T19:08:10.618Z,71.18
2019-02-15T19:10:42.927Z,71.21
2019-02-15T19:13:15.243Z,71.22
2019-02-15T19:15:47.539Z,71.17
2019-02-15T19:18:19.823Z,71.10
2019-02-15T19:20:52.088Z,71.17
2019-02-15T19:23:24.271Z,71.17
2019-02-15T19:25:56.411Z,71.09
2019-02-15T19:28:28.632Z,71.09
2019-02-15T19:31:00.847Z,71.09
2019-02-15T19:33:33.057Z,71.09
2019-02-15T19:36:05.463Z,71.03
2019-02-15T19:38:38.661Z,71.06
2019-02-15T19:41:10.906Z,71.08
2019-02-15T19:43:43.037Z,71.06
2019-02-15T19:46:15.377Z,71.06
2019-02-15T19:48:47.537Z,71.06
2019-02-15T19:51:19.898Z,71.02
2019-02-15T19:53:52.056Z,71.02
2019-02-15T19:56:24.292Z,71.02
2019-02-15T19:58:56.371Z,71.03
2019-02-15T20:01:28.767Z,71.01
2019-02-15T20:04:01.067Z,70.96
2019-02-15T20:06:33.236Z,70.94
2019-02-15T20:09:06.310Z,70.96
2019-02-15T20:11:38.625Z,70.92
2019-02-15T20:14:11.662Z,70.89
2019-02-15T20:16:43.861Z,70.88
2019-02-15T20:19:17.179Z,70.87
2019-02-15T20:21:50.161Z,70.92
2019-02-15T20:24:22.414Z,70.92
2019-02-15T20:26:54.773Z,70.87
2019-02-15T20:29:27.472Z,70.83
2019-02-15T20:32:00.931Z,70.85
2019-02-15T20:34:33.478Z,70.78
2019-02-15T20:37:05.897Z,70.77
2019-02-15T20:39:38.189Z,70.75
2019-02-15T20:42:10.435Z,70.75
2019-02-15T20:44:42.856Z,70.76
2019-02-15T20:47:15.084Z,70.78
2019-02-15T20:49:47.316Z,70.77
2019-02-15T20:52:19.421Z,70.68
2019-02-15T20:54:51.702Z,70.68
2019-02-15T20:57:24.130Z,70.60
2019-02-15T20:59:56.459Z,70.67
2019-02-15T21:02:28.855Z,70.60
2019-02-15T21:05:01.288Z,70.58
2019-02-15T21:07:34.643Z,70.52
2019-02-15T21:10:07.072Z,70.52
2019-02-15T21:12:39.644Z,70.53
2019-02-15T21:15:12.196Z,70.44
2019-02-15T21:17:44.447Z,70.51
2019-02-15T21:20:16.837Z,70.45
2019-02-15T21:22:49.163Z,70.46
2019-02-15T21:25:21.366Z,70.43
2019-02-15T21:27:54.171Z,70.44
2019-02-15T21:30:26.440Z,70.36
2019-02-15T21:32:58.657Z,70.35
2019-02-15T21:35:31.040Z,70.36
2019-02-15T21:38:03.220Z,70.33
2019-02-15T21:40:35.532Z,70.26
2019-02-15T21:43:07.659Z,70.24
2019-02-15T21:45:39.899Z,70.19
2019-02-15T21:48:11.995Z,70.22
2019-02-15T21:50:44.146Z,70.20
2019-02-15T21:53:16.287Z,70.19
2019-02-15T21:55:48.619Z,70.12
2019-02-15T21:58:20.895Z,70.15
2019-02-15T22:00:53.039Z,70.11
2019-02-15T22:03:25.268Z,70.13
2019-02-15T22:05:57.559Z,70.09
2019-02-15T22:08:30.823Z,70.06
2019-02-15T22:11:03.087Z,69.99
2019-02-15T22:13:36.534Z,70.05
2019-02-15T22:16:08.710Z,70.05
2019-02-15T22:18:41.003Z,70.05
2019-02-15T22:21:13.134Z,69.99
2019-02-15T22:23:45.566Z,69.97
2019-02-15T22:26:17.802Z,69.96
2019-02-15T22:28:50.023Z,69.91
2019-02-15T22:31:22.186Z,69.87
2019-02-15T22:33:54.175Z,69.92
2019-02-15T22:36:26.433Z,69.86
2019-02-15T22:38:58.615Z,69.88
2019-02-15T22:41:31.019Z,69.80
2019-02-15T22:44:03.123Z,69.81
2019-02-15T22:46:35.465Z,69.77
2019-02-15T22:49:07.723Z,69.70
2019-02-15T22:51:39.844Z,69.70
2019-02-15T22:54:12.179Z,69.70
2019-02-15T22:56:44.504Z,69.65
2019-02-15T22:59:17.023Z,69.59
2019-02-15T23:01:49.149Z,69.55
2019-02-15T23:04:21.536Z,69.45
2019-02-15T23:06:53.825Z,69.47
2019-02-15T23:09:27.558Z,69.52
2019-02-15T23:11:59.719Z,69.46
2019-02-15T23:14:31.785Z,69.39
2019-02-15T23:17:04.085Z,69.42
2019-02-15T23:19:36.430Z,69.34
2019-02-15T23:22:08.723Z,69.36
2019-02-15T23:24:41.061Z,69.35
2019-02-15T23:27:13.283Z,69.32
2019-02-15T23:29:45.741Z,69.23
2019-02-15T23:32:17.771Z,69.24
2019-02-15T23:34:51.168Z,69.20
2019-02-15T23:37:23.417Z,69.21
2019-02-15T23:39:55.581Z,69.19
2019-02-15T23:42:27.860Z,69.17
2019-02-15T23:45:00.353Z,69.18
2019-02-15T23:47:33.727Z,69.08
2019-02-15T23:50:06.027Z,69.10
2019-02-15T23:52:38.332Z,69.09
2019-02-15T23:55:10.691Z,69.06
2019-02-15T23:57:43.082Z,68.97
